Terminal Aerodrome Forecast
Issued by NWS

Home | Current Version | Previous Version | Text Only | Print | Product List | Glossary On
Versions: 1 2 3 4 5 6 7 8 9 10 11 12 13 14 15
331
FTUS44 KBMX 230759 AAB
TAFEET
TAF AMD
KEET 230759Z 2308/2406 24005KT 5SM BR VCSH OVC003
     FM231600 29008G18KT P6SM VCSH OVC008
     FM232100 31010G18KT P6SM OVC015=

USA.gov is the U.S. government's official web portal to all federal, state and local government web resources and services.